sensor_id;sensor_type;location;lat;lon;timestamp;P1;durP1;ratioP1;P2;durP2;ratioP2
16242;SDS011;11719;51.052;6.982;2023-04-03T00:00:42;4.63;;;1.83;;
16242;SDS011;11719;51.052;6.982;2023-04-03T00:03:08;2.10;;;1.50;;
16242;SDS011;11719;51.052;6.982;2023-04-03T00:05:34;2.30;;;1.87;;
16242;SDS011;11719;51.052;6.982;2023-04-03T00:08:00;3.73;;;2.30;;
16242;SDS011;11719;51.052;6.982;2023-04-03T00:10:27;3.50;;;1.50;;
16242;SDS011;11719;51.052;6.982;2023-04-03T00:12:53;2.77;;;1.43;;
16242;SDS011;11719;51.052;6.982;2023-04-03T00:15:19;2.60;;;1.77;;
16242;SDS011;11719;51.052;6.982;2023-04-03T00:17:45;3.73;;;1.80;;
16242;SDS011;11719;51.052;6.982;2023-04-03T00:20:11;1.73;;;1.50;;
16242;SDS011;11719;51.052;6.982;2023-04-03T00:22:37;1.17;;;1.00;;
16242;SDS011;11719;51.052;6.982;2023-04-03T00:25:03;3.07;;;1.30;;
16242;SDS011;11719;51.052;6.982;2023-04-03T00:27:29;1.67;;;0.93;;
16242;SDS011;11719;51.052;6.982;2023-04-03T00:29:55;1.20;;;1.10;;
16242;SDS011;11719;51.052;6.982;2023-04-03T00:32:20;1.30;;;1.10;;
16242;SDS011;11719;51.052;6.982;2023-04-03T00:34:46;1.60;;;1.33;;
16242;SDS011;11719;51.052;6.982;2023-04-03T00:37:12;2.33;;;1.23;;
16242;SDS011;11719;51.052;6.982;2023-04-03T00:39:38;1.70;;;1.17;;
16242;SDS011;11719;51.052;6.982;2023-04-03T00:42:04;1.00;;;0.80;;
16242;SDS011;11719;51.052;6.982;2023-04-03T00:47:02;2.27;;;0.90;;
16242;SDS011;11719;51.052;6.982;2023-04-03T00:49:31;1.70;;;1.30;;
16242;SDS011;11719;51.052;6.982;2023-04-03T00:51:57;1.20;;;1.10;;
16242;SDS011;11719;51.052;6.982;2023-04-03T00:54:24;2.10;;;1.40;;
16242;SDS011;11719;51.052;6.982;2023-04-03T00:56:51;1.40;;;0.80;;
16242;SDS011;11719;51.052;6.982;2023-04-03T00:59:27;3.63;;;1.73;;
16242;SDS011;11719;51.052;6.982;2023-04-03T01:01:58;1.47;;;1.07;;
16242;SDS011;11719;51.052;6.982;2023-04-03T01:04:35;2.27;;;1.23;;
16242;SDS011;11719;51.052;6.982;2023-04-03T01:07:07;1.40;;;1.30;;
16242;SDS011;11719;51.052;6.982;2023-04-03T01:09:40;2.43;;;1.17;;
16242;SDS011;11719;51.052;6.982;2023-04-03T01:15:10;1.87;;;1.37;;
16242;SDS011;11719;51.052;6.982;2023-04-03T01:17:52;2.33;;;1.57;;
16242;SDS011;11719;51.052;6.982;2023-04-03T01:25:41;1.23;;;1.13;;
16242;SDS011;11719;51.052;6.982;2023-04-03T01:28:16;2.57;;;1.40;;
16242;SDS011;11719;51.052;6.982;2023-04-03T01:33:38;2.63;;;1.80;;
16242;SDS011;11719;51.052;6.982;2023-04-03T01:36:04;3.03;;;1.17;;
16242;SDS011;11719;51.052;6.982;2023-04-03T01:38:31;1.40;;;1.20;;
16242;SDS011;11719;51.052;6.982;2023-04-03T01:40:57;1.67;;;1.23;;
16242;SDS011;11719;51.052;6.982;2023-04-03T01:43:23;1.27;;;1.13;;
16242;SDS011;11719;51.052;6.982;2023-04-03T01:45:49;1.33;;;1.20;;
16242;SDS011;11719;51.052;6.982;2023-04-03T01:48:17;5.33;;;1.30;;
16242;SDS011;11719;51.052;6.982;2023-04-03T01:50:43;1.77;;;1.30;;
16242;SDS011;11719;51.052;6.982;2023-04-03T01:53:09;1.67;;;1.30;;
16242;SDS011;11719;51.052;6.982;2023-04-03T01:55:34;1.27;;;1.03;;
16242;SDS011;11719;51.052;6.982;2023-04-03T02:00:35;1.50;;;0.90;;
16242;SDS011;11719;51.052;6.982;2023-04-03T02:03:01;2.37;;;0.90;;
16242;SDS011;11719;51.052;6.982;2023-04-03T02:05:27;1.30;;;0.90;;
16242;SDS011;11719;51.052;6.982;2023-04-03T02:07:53;1.43;;;0.83;;
16242;SDS011;11719;51.052;6.982;2023-04-03T02:10:19;1.30;;;0.80;;
16242;SDS011;11719;51.052;6.982;2023-04-03T02:12:45;3.20;;;1.23;;
16242;SDS011;11719;51.052;6.982;2023-04-03T02:15:11;0.77;;;0.77;;
16242;SDS011;11719;51.052;6.982;2023-04-03T02:17:37;1.17;;;0.80;;
16242;SDS011;11719;51.052;6.982;2023-04-03T02:20:03;1.17;;;0.80;;
16242;SDS011;11719;51.052;6.982;2023-04-03T02:22:30;2.80;;;0.90;;
16242;SDS011;11719;51.052;6.982;2023-04-03T02:24:56;0.77;;;0.77;;
16242;SDS011;11719;51.052;6.982;2023-04-03T02:27:21;1.60;;;0.80;;
16242;SDS011;11719;51.052;6.982;2023-04-03T02:29:47;0.87;;;0.87;;
16242;SDS011;11719;51.052;6.982;2023-04-03T02:32:13;1.37;;;1.00;;
16242;SDS011;11719;51.052;6.982;2023-04-03T02:34:39;0.80;;;0.80;;
16242;SDS011;11719;51.052;6.982;2023-04-03T02:37:05;0.80;;;0.80;;
16242;SDS011;11719;51.052;6.982;2023-04-03T02:39:31;1.23;;;0.80;;
16242;SDS011;11719;51.052;6.982;2023-04-03T02:41:56;1.03;;;0.90;;
16242;SDS011;11719;51.052;6.982;2023-04-03T02:44:22;0.80;;;0.80;;
16242;SDS011;11719;51.052;6.982;2023-04-03T02:46:48;0.80;;;0.80;;
16242;SDS011;11719;51.052;6.982;2023-04-03T02:49:14;0.93;;;0.73;;
16242;SDS011;11719;51.052;6.982;2023-04-03T02:51:40;1.17;;;0.80;;
16242;SDS011;11719;51.052;6.982;2023-04-03T02:54:06;1.00;;;0.73;;
16242;SDS011;11719;51.052;6.982;2023-04-03T02:56:33;2.17;;;1.00;;
16242;SDS011;11719;51.052;6.982;2023-04-03T02:58:59;5.23;;;0.70;;
16242;SDS011;11719;51.052;6.982;2023-04-03T03:01:24;0.80;;;0.80;;
16242;SDS011;11719;51.052;6.982;2023-04-03T03:03:53;1.83;;;0.93;;
16242;SDS011;11719;51.052;6.982;2023-04-03T03:06:19;2.60;;;0.87;;
16242;SDS011;11719;51.052;6.982;2023-04-03T03:08:45;1.30;;;0.90;;
16242;SDS011;11719;51.052;6.982;2023-04-03T03:11:11;0.97;;;0.80;;
16242;SDS011;11719;51.052;6.982;2023-04-03T03:13:37;2.10;;;1.00;;
16242;SDS011;11719;51.052;6.982;2023-04-03T03:16:03;1.43;;;1.00;;
16242;SDS011;11719;51.052;6.982;2023-04-03T03:18:30;1.27;;;1.10;;
16242;SDS011;11719;51.052;6.982;2023-04-03T03:20:56;0.70;;;0.70;;
16242;SDS011;11719;51.052;6.982;2023-04-03T03:23:24;4.00;;;0.80;;
16242;SDS011;11719;51.052;6.982;2023-04-03T03:25:59;2.20;;;0.87;;
16242;SDS011;11719;51.052;6.982;2023-04-03T03:28:36;2.70;;;0.90;;
16242;SDS011;11719;51.052;6.982;2023-04-03T03:31:03;2.00;;;0.83;;
16242;SDS011;11719;51.052;6.982;2023-04-03T03:33:30;1.07;;;0.70;;
16242;SDS011;11719;51.052;6.982;2023-04-03T03:35:56;0.97;;;0.60;;
16242;SDS011;11719;51.052;6.982;2023-04-03T03:38:22;1.10;;;0.70;;
16242;SDS011;11719;51.052;6.982;2023-04-03T03:40:49;0.73;;;0.70;;
16242;SDS011;11719;51.052;6.982;2023-04-03T03:43:16;1.20;;;1.00;;
16242;SDS011;11719;51.052;6.982;2023-04-03T03:45:43;0.57;;;0.50;;
16242;SDS011;11719;51.052;6.982;2023-04-03T03:48:10;0.90;;;0.60;;
16242;SDS011;11719;51.052;6.982;2023-04-03T03:50:36;0.87;;;0.70;;
16242;SDS011;11719;51.052;6.982;2023-04-03T03:53:02;1.00;;;0.90;;
16242;SDS011;11719;51.052;6.982;2023-04-03T03:55:28;1.10;;;0.60;;
16242;SDS011;11719;51.052;6.982;2023-04-03T03:57:54;1.03;;;0.70;;
16242;SDS011;11719;51.052;6.982;2023-04-03T04:00:20;0.83;;;0.40;;
16242;SDS011;11719;51.052;6.982;2023-04-03T04:02:46;0.70;;;0.63;;
16242;SDS011;11719;51.052;6.982;2023-04-03T04:05:11;1.40;;;0.80;;
16242;SDS011;11719;51.052;6.982;2023-04-03T04:07:37;1.00;;;0.90;;
16242;SDS011;11719;51.052;6.982;2023-04-03T04:10:03;0.53;;;0.37;;
16242;SDS011;11719;51.052;6.982;2023-04-03T04:12:30;1.83;;;0.63;;
16242;SDS011;11719;51.052;6.982;2023-04-03T04:14:55;0.47;;;0.47;;
16242;SDS011;11719;51.052;6.982;2023-04-03T04:17:21;1.20;;;0.63;;
16242;SDS011;11719;51.052;6.982;2023-04-03T04:19:47;0.43;;;0.43;;
16242;SDS011;11719;51.052;6.982;2023-04-03T04:22:13;0.67;;;0.40;;
16242;SDS011;11719;51.052;6.982;2023-04-03T04:24:39;1.13;;;0.70;;
16242;SDS011;11719;51.052;6.982;2023-04-03T04:27:04;0.77;;;0.50;;
16242;SDS011;11719;51.052;6.982;2023-04-03T04:29:30;0.83;;;0.60;;
16242;SDS011;11719;51.052;6.982;2023-04-03T04:32:00;0.53;;;0.40;;
16242;SDS011;11719;51.052;6.982;2023-04-03T04:34:27;0.40;;;0.40;;
16242;SDS011;11719;51.052;6.982;2023-04-03T04:36:54;0.50;;;0.50;;
16242;SDS011;11719;51.052;6.982;2023-04-03T04:39:20;1.20;;;0.53;;
16242;SDS011;11719;51.052;6.982;2023-04-03T04:41:46;1.10;;;0.50;;
16242;SDS011;11719;51.052;6.982;2023-04-03T04:44:11;0.60;;;0.50;;
16242;SDS011;11719;51.052;6.982;2023-04-03T04:46:37;0.53;;;0.50;;
16242;SDS011;11719;51.052;6.982;2023-04-03T04:49:03;0.77;;;0.57;;
16242;SDS011;11719;51.052;6.982;2023-04-03T04:51:29;1.20;;;0.50;;
16242;SDS011;11719;51.052;6.982;2023-04-03T04:53:55;0.90;;;0.60;;
16242;SDS011;11719;51.052;6.982;2023-04-03T04:56:21;2.40;;;0.60;;
16242;SDS011;11719;51.052;6.982;2023-04-03T04:58:46;0.77;;;0.70;;
16242;SDS011;11719;51.052;6.982;2023-04-03T05:01:13;0.77;;;0.40;;
16242;SDS011;11719;51.052;6.982;2023-04-03T05:03:38;0.50;;;0.40;;
16242;SDS011;11719;51.052;6.982;2023-04-03T05:06:04;1.07;;;0.47;;
16242;SDS011;11719;51.052;6.982;2023-04-03T05:08:30;0.43;;;0.40;;
16242;SDS011;11719;51.052;6.982;2023-04-03T05:10:56;0.73;;;0.40;;
16242;SDS011;11719;51.052;6.982;2023-04-03T05:13:23;1.80;;;0.60;;
16242;SDS011;11719;51.052;6.982;2023-04-03T05:15:49;0.93;;;0.40;;
16242;SDS011;11719;51.052;6.982;2023-04-03T05:18:14;0.37;;;0.30;;
16242;SDS011;11719;51.052;6.982;2023-04-03T05:20:40;0.37;;;0.37;;
16242;SDS011;11719;51.052;6.982;2023-04-03T05:23:08;0.90;;;0.70;;
16242;SDS011;11719;51.052;6.982;2023-04-03T05:25:37;0.30;;;0.30;;
16242;SDS011;11719;51.052;6.982;2023-04-03T05:28:03;2.13;;;0.50;;
16242;SDS011;11719;51.052;6.982;2023-04-03T05:30:30;0.90;;;0.40;;
16242;SDS011;11719;51.052;6.982;2023-04-03T05:32:55;1.23;;;0.50;;
16242;SDS011;11719;51.052;6.982;2023-04-03T05:35:21;0.73;;;0.40;;
16242;SDS011;11719;51.052;6.982;2023-04-03T05:37:48;4.13;;;0.47;;
16242;SDS011;11719;51.052;6.982;2023-04-03T05:40:14;0.33;;;0.30;;
16242;SDS011;11719;51.052;6.982;2023-04-03T05:42:40;0.40;;;0.40;;
16242;SDS011;11719;51.052;6.982;2023-04-03T05:45:06;1.77;;;0.60;;
16242;SDS011;11719;51.052;6.982;2023-04-03T05:47:32;0.90;;;0.50;;
16242;SDS011;11719;51.052;6.982;2023-04-03T05:49:58;1.80;;;0.70;;
16242;SDS011;11719;51.052;6.982;2023-04-03T05:54:55;0.63;;;0.40;;
16242;SDS011;11719;51.052;6.982;2023-04-03T05:57:22;0.67;;;0.40;;
16242;SDS011;11719;51.052;6.982;2023-04-03T05:59:49;0.93;;;0.40;;
16242;SDS011;11719;51.052;6.982;2023-04-03T06:02:16;0.37;;;0.30;;
16242;SDS011;11719;51.052;6.982;2023-04-03T06:04:44;0.50;;;0.50;;
16242;SDS011;11719;51.052;6.982;2023-04-03T06:07:14;0.27;;;0.27;;
16242;SDS011;11719;51.052;6.982;2023-04-03T06:09:44;0.67;;;0.60;;
16242;SDS011;11719;51.052;6.982;2023-04-03T06:12:10;0.37;;;0.37;;
16242;SDS011;11719;51.052;6.982;2023-04-03T06:14:36;0.40;;;0.40;;
16242;SDS011;11719;51.052;6.982;2023-04-03T06:17:02;0.30;;;0.30;;
16242;SDS011;11719;51.052;6.982;2023-04-03T06:19:29;0.23;;;0.20;;
16242;SDS011;11719;51.052;6.982;2023-04-03T06:21:56;0.63;;;0.47;;
16242;SDS011;11719;51.052;6.982;2023-04-03T06:24:21;0.93;;;0.50;;
16242;SDS011;11719;51.052;6.982;2023-04-03T06:26:49;1.23;;;0.37;;
16242;SDS011;11719;51.052;6.982;2023-04-03T06:29:16;0.60;;;0.30;;
16242;SDS011;11719;51.052;6.982;2023-04-03T06:31:43;1.50;;;0.30;;
16242;SDS011;11719;51.052;6.982;2023-04-03T06:34:09;0.87;;;0.40;;
16242;SDS011;11719;51.052;6.982;2023-04-03T06:36:36;0.63;;;0.33;;
16242;SDS011;11719;51.052;6.982;2023-04-03T06:39:02;0.40;;;0.40;;
16242;SDS011;11719;51.052;6.982;2023-04-03T06:41:28;0.83;;;0.40;;
16242;SDS011;11719;51.052;6.982;2023-04-03T06:43:55;1.30;;;0.60;;
16242;SDS011;11719;51.052;6.982;2023-04-03T06:46:22;0.63;;;0.30;;
16242;SDS011;11719;51.052;6.982;2023-04-03T06:48:49;0.67;;;0.40;;
16242;SDS011;11719;51.052;6.982;2023-04-03T06:51:28;0.67;;;0.40;;
16242;SDS011;11719;51.052;6.982;2023-04-03T06:53:56;3.43;;;0.60;;
16242;SDS011;11719;51.052;6.982;2023-04-03T06:56:24;1.67;;;0.43;;
16242;SDS011;11719;51.052;6.982;2023-04-03T06:58:52;0.30;;;0.30;;
16242;SDS011;11719;51.052;6.982;2023-04-03T07:01:23;0.53;;;0.47;;
16242;SDS011;11719;51.052;6.982;2023-04-03T07:03:52;0.77;;;0.40;;
16242;SDS011;11719;51.052;6.982;2023-04-03T07:06:18;0.87;;;0.53;;
16242;SDS011;11719;51.052;6.982;2023-04-03T07:08:45;1.30;;;0.43;;
16242;SDS011;11719;51.052;6.982;2023-04-03T07:11:13;0.33;;;0.20;;
16242;SDS011;11719;51.052;6.982;2023-04-03T07:13:39;2.63;;;0.43;;
16242;SDS011;11719;51.052;6.982;2023-04-03T07:16:06;2.23;;;0.60;;
16242;SDS011;11719;51.052;6.982;2023-04-03T07:18:33;0.30;;;0.30;;
16242;SDS011;11719;51.052;6.982;2023-04-03T07:21:00;1.10;;;0.40;;
16242;SDS011;11719;51.052;6.982;2023-04-03T07:23:27;0.33;;;0.20;;
16242;SDS011;11719;51.052;6.982;2023-04-03T07:25:53;0.37;;;0.20;;
16242;SDS011;11719;51.052;6.982;2023-04-03T07:28:19;1.17;;;0.40;;
16242;SDS011;11719;51.052;6.982;2023-04-03T07:30:48;0.63;;;0.40;;
16242;SDS011;11719;51.052;6.982;2023-04-03T07:33:18;1.07;;;0.50;;
16242;SDS011;11719;51.052;6.982;2023-04-03T07:35:47;1.20;;;0.40;;
16242;SDS011;11719;51.052;6.982;2023-04-03T07:38:14;0.37;;;0.30;;
16242;SDS011;11719;51.052;6.982;2023-04-03T07:40:41;0.50;;;0.30;;
16242;SDS011;11719;51.052;6.982;2023-04-03T07:43:15;1.07;;;0.40;;
16242;SDS011;11719;51.052;6.982;2023-04-03T07:45:42;0.20;;;0.20;;
16242;SDS011;11719;51.052;6.982;2023-04-03T07:48:09;0.20;;;0.20;;
16242;SDS011;11719;51.052;6.982;2023-04-03T07:50:36;0.30;;;0.10;;
16242;SDS011;11719;51.052;6.982;2023-04-03T07:53:02;0.30;;;0.23;;
16242;SDS011;11719;51.052;6.982;2023-04-03T07:55:28;0.47;;;0.30;;
16242;SDS011;11719;51.052;6.982;2023-04-03T07:57:54;0.57;;;0.20;;
16242;SDS011;11719;51.052;6.982;2023-04-03T08:00:21;0.30;;;0.20;;
16242;SDS011;11719;51.052;6.982;2023-04-03T08:02:47;2.17;;;0.50;;
16242;SDS011;11719;51.052;6.982;2023-04-03T08:05:16;0.53;;;0.20;;
16242;SDS011;11719;51.052;6.982;2023-04-03T08:07:43;2.10;;;0.33;;
16242;SDS011;11719;51.052;6.982;2023-04-03T08:10:10;0.73;;;0.37;;
16242;SDS011;11719;51.052;6.982;2023-04-03T08:12:36;0.30;;;0.20;;
16242;SDS011;11719;51.052;6.982;2023-04-03T08:15:02;0.20;;;0.20;;
16242;SDS011;11719;51.052;6.982;2023-04-03T08:17:29;0.57;;;0.20;;
16242;SDS011;11719;51.052;6.982;2023-04-03T08:19:55;0.97;;;0.30;;
16242;SDS011;11719;51.052;6.982;2023-04-03T08:22:21;0.70;;;0.20;;
16242;SDS011;11719;51.052;6.982;2023-04-03T08:24:46;0.43;;;0.23;;
16242;SDS011;11719;51.052;6.982;2023-04-03T08:27:12;1.50;;;0.23;;
16242;SDS011;11719;51.052;6.982;2023-04-03T08:29:38;0.30;;;0.30;;
16242;SDS011;11719;51.052;6.982;2023-04-03T08:32:05;1.00;;;0.37;;
16242;SDS011;11719;51.052;6.982;2023-04-03T08:34:31;1.13;;;0.50;;
16242;SDS011;11719;51.052;6.982;2023-04-03T08:37:00;1.13;;;0.30;;
16242;SDS011;11719;51.052;6.982;2023-04-03T08:39:26;1.43;;;0.30;;
16242;SDS011;11719;51.052;6.982;2023-04-03T08:41:53;0.47;;;0.30;;
16242;SDS011;11719;51.052;6.982;2023-04-03T08:47:14;1.13;;;0.60;;
16242;SDS011;11719;51.052;6.982;2023-04-03T08:49:56;0.83;;;0.27;;
16242;SDS011;11719;51.052;6.982;2023-04-03T08:55:07;0.27;;;0.20;;
16242;SDS011;11719;51.052;6.982;2023-04-03T08:57:44;1.43;;;0.20;;
16242;SDS011;11719;51.052;6.982;2023-04-03T09:02:47;0.30;;;0.30;;
16242;SDS011;11719;51.052;6.982;2023-04-03T09:05:16;0.30;;;0.27;;
16242;SDS011;11719;51.052;6.982;2023-04-03T09:07:49;2.10;;;0.47;;
16242;SDS011;11719;51.052;6.982;2023-04-03T09:10:32;0.77;;;0.37;;
16242;SDS011;11719;51.052;6.982;2023-04-03T09:13:15;0.33;;;0.20;;
16242;SDS011;11719;51.052;6.982;2023-04-03T09:15:52;0.27;;;0.17;;
16242;SDS011;11719;51.052;6.982;2023-04-03T09:18:20;0.40;;;0.30;;
16242;SDS011;11719;51.052;6.982;2023-04-03T09:23:44;1.63;;;0.30;;
16242;SDS011;11719;51.052;6.982;2023-04-03T09:26:24;0.50;;;0.10;;
16242;SDS011;11719;51.052;6.982;2023-04-03T09:28:56;1.80;;;0.17;;
16242;SDS011;11719;51.052;6.982;2023-04-03T09:31:27;1.77;;;0.60;;
16242;SDS011;11719;51.052;6.982;2023-04-03T09:37:02;0.50;;;0.30;;
16242;SDS011;11719;51.052;6.982;2023-04-03T09:39:31;1.30;;;0.20;;
16242;SDS011;11719;51.052;6.982;2023-04-03T09:42:19;2.30;;;0.30;;
16242;SDS011;11719;51.052;6.982;2023-04-03T09:44:55;0.73;;;0.27;;
16242;SDS011;11719;51.052;6.982;2023-04-03T09:50:41;0.20;;;0.20;;
16242;SDS011;11719;51.052;6.982;2023-04-03T09:52:49;0.40;;;0.40;;
16242;SDS011;11719;51.052;6.982;2023-04-03T09:55:25;0.20;;;0.10;;
16242;SDS011;11719;51.052;6.982;2023-04-03T09:57:52;0.97;;;0.20;;
16242;SDS011;11719;51.052;6.982;2023-04-03T10:02:53;0.50;;;0.20;;
16242;SDS011;11719;51.052;6.982;2023-04-03T10:08:07;2.77;;;0.70;;
16242;SDS011;11719;51.052;6.982;2023-04-03T10:10:46;0.33;;;0.30;;
16242;SDS011;11719;51.052;6.982;2023-04-03T10:13:15;0.37;;;0.10;;
16242;SDS011;11719;51.052;6.982;2023-04-03T10:15:51;0.43;;;0.20;;
16242;SDS011;11719;51.052;6.982;2023-04-03T10:21:44;2.17;;;0.33;;
16242;SDS011;11719;51.052;6.982;2023-04-03T10:41:20;0.90;;;0.30;;
16242;SDS011;11719;51.052;6.982;2023-04-03T10:46:35;0.50;;;0.20;;
16242;SDS011;11719;51.052;6.982;2023-04-03T10:57:39;1.73;;;0.40;;
16242;SDS011;11719;51.052;6.982;2023-04-03T11:00:10;0.93;;;0.30;;
16242;SDS011;11719;51.052;6.982;2023-04-03T11:02:57;1.87;;;0.57;;
16242;SDS011;11719;51.052;6.982;2023-04-03T11:05:34;0.40;;;0.37;;
16242;SDS011;11719;51.052;6.982;2023-04-03T11:10:59;0.17;;;0.13;;
16242;SDS011;11719;51.052;6.982;2023-04-03T11:13:36;0.03;;;0.03;;
16242;SDS011;11719;51.052;6.982;2023-04-03T11:16:21;0.10;;;0.10;;
16242;SDS011;11719;51.052;6.982;2023-04-03T11:22:09;0.13;;;0.10;;
16242;SDS011;11719;51.052;6.982;2023-04-03T11:25:37;0.33;;;0.10;;
16242;SDS011;11719;51.052;6.982;2023-04-03T11:27:40;0.20;;;0.20;;
16242;SDS011;11719;51.052;6.982;2023-04-03T11:36:25;0.23;;;0.23;;
16242;SDS011;11719;51.052;6.982;2023-04-03T11:47:48;0.53;;;0.27;;
16242;SDS011;11719;51.052;6.982;2023-04-03T11:55:44;0.23;;;0.10;;
16242;SDS011;11719;51.052;6.982;2023-04-03T11:58:15;0.47;;;0.30;;
16242;SDS011;11719;51.052;6.982;2023-04-03T12:13:37;0.63;;;0.17;;
16242;SDS011;11719;51.052;6.982;2023-04-03T12:16:28;0.20;;;0.13;;
16242;SDS011;11719;51.052;6.982;2023-04-03T12:22:18;0.57;;;0.23;;
16242;SDS011;11719;51.052;6.982;2023-04-03T12:24:52;0.10;;;0.10;;
16242;SDS011;11719;51.052;6.982;2023-04-03T12:30:03;0.10;;;0.10;;
16242;SDS011;11719;51.052;6.982;2023-04-03T12:32:45;0.20;;;0.10;;
16242;SDS011;11719;51.052;6.982;2023-04-03T12:40:57;0.63;;;0.20;;
16242;SDS011;11719;51.052;6.982;2023-04-03T12:46:39;0.40;;;0.10;;
16242;SDS011;11719;51.052;6.982;2023-04-03T12:49:44;0.50;;;0.20;;
16242;SDS011;11719;51.052;6.982;2023-04-03T12:52:18;0.10;;;0.00;;
16242;SDS011;11719;51.052;6.982;2023-04-03T12:55:16;0.10;;;0.00;;
16242;SDS011;11719;51.052;6.982;2023-04-03T12:57:45;0.40;;;0.30;;
16242;SDS011;11719;51.052;6.982;2023-04-03T13:03:03;0.50;;;0.10;;
16242;SDS011;11719;51.052;6.982;2023-04-03T13:05:31;0.57;;;0.20;;
16242;SDS011;11719;51.052;6.982;2023-04-03T13:08:02;0.37;;;0.10;;
16242;SDS011;11719;51.052;6.982;2023-04-03T13:10:31;0.47;;;0.00;;
16242;SDS011;11719;51.052;6.982;2023-04-03T13:13:13;0.63;;;0.20;;
16242;SDS011;11719;51.052;6.982;2023-04-03T13:15:42;0.70;;;0.20;;
16242;SDS011;11719;51.052;6.982;2023-04-03T13:20:57;0.83;;;0.10;;
16242;SDS011;11719;51.052;6.982;2023-04-03T13:23:31;0.30;;;0.23;;
16242;SDS011;11719;51.052;6.982;2023-04-03T13:26:00;0.43;;;0.30;;
16242;SDS011;11719;51.052;6.982;2023-04-03T13:28:28;0.53;;;0.10;;
16242;SDS011;11719;51.052;6.982;2023-04-03T13:31:17;0.40;;;0.23;;
16242;SDS011;11719;51.052;6.982;2023-04-03T13:34:02;0.40;;;0.13;;
16242;SDS011;11719;51.052;6.982;2023-04-03T13:36:38;0.40;;;0.23;;
16242;SDS011;11719;51.052;6.982;2023-04-03T13:41:55;0.60;;;0.20;;
16242;SDS011;11719;51.052;6.982;2023-04-03T13:44:33;2.57;;;0.30;;
16242;SDS011;11719;51.052;6.982;2023-04-03T13:52:21;0.60;;;0.20;;
16242;SDS011;11719;51.052;6.982;2023-04-03T13:55:15;0.20;;;0.10;;
16242;SDS011;11719;51.052;6.982;2023-04-03T13:57:59;1.80;;;0.20;;
16242;SDS011;11719;51.052;6.982;2023-04-03T14:01:15;0.23;;;0.20;;
16242;SDS011;11719;51.052;6.982;2023-04-03T14:03:59;0.30;;;0.10;;
16242;SDS011;11719;51.052;6.982;2023-04-03T14:06:27;1.60;;;0.60;;
16242;SDS011;11719;51.052;6.982;2023-04-03T14:08:54;0.10;;;0.10;;
16242;SDS011;11719;51.052;6.982;2023-04-03T14:11:24;0.30;;;0.10;;
16242;SDS011;11719;51.052;6.982;2023-04-03T14:13:53;2.00;;;0.40;;
16242;SDS011;11719;51.052;6.982;2023-04-03T14:16:26;0.40;;;0.30;;
16242;SDS011;11719;51.052;6.982;2023-04-03T14:18:55;1.27;;;0.00;;
16242;SDS011;11719;51.052;6.982;2023-04-03T14:21:21;0.60;;;0.20;;
16242;SDS011;11719;51.052;6.982;2023-04-03T14:23:47;0.27;;;0.10;;
16242;SDS011;11719;51.052;6.982;2023-04-03T14:26:16;0.10;;;0.10;;
16242;SDS011;11719;51.052;6.982;2023-04-03T14:28:49;0.20;;;0.13;;
16242;SDS011;11719;51.052;6.982;2023-04-03T14:31:18;0.37;;;0.20;;
16242;SDS011;11719;51.052;6.982;2023-04-03T14:33:46;0.40;;;0.20;;
16242;SDS011;11719;51.052;6.982;2023-04-03T14:38:48;0.47;;;0.30;;
16242;SDS011;11719;51.052;6.982;2023-04-03T14:41:18;0.20;;;0.20;;
16242;SDS011;11719;51.052;6.982;2023-04-03T14:43:48;0.53;;;0.30;;
16242;SDS011;11719;51.052;6.982;2023-04-03T14:46:19;0.57;;;0.50;;
16242;SDS011;11719;51.052;6.982;2023-04-03T14:48:56;0.97;;;0.10;;
16242;SDS011;11719;51.052;6.982;2023-04-03T14:51:23;1.57;;;0.20;;
16242;SDS011;11719;51.052;6.982;2023-04-03T14:53:49;0.03;;;0.03;;
16242;SDS011;11719;51.052;6.982;2023-04-03T14:56:26;0.40;;;0.23;;
16242;SDS011;11719;51.052;6.982;2023-04-03T14:58:58;0.13;;;0.13;;
16242;SDS011;11719;51.052;6.982;2023-04-03T15:01:26;0.60;;;0.60;;
16242;SDS011;11719;51.052;6.982;2023-04-03T15:03:53;0.37;;;0.20;;
16242;SDS011;11719;51.052;6.982;2023-04-03T15:06:20;0.30;;;0.20;;
16242;SDS011;11719;51.052;6.982;2023-04-03T15:08:47;0.33;;;0.10;;
16242;SDS011;11719;51.052;6.982;2023-04-03T15:11:13;0.20;;;0.20;;
16242;SDS011;11719;51.052;6.982;2023-04-03T15:13:40;0.10;;;0.10;;
16242;SDS011;11719;51.052;6.982;2023-04-03T15:16:10;0.30;;;0.10;;
16242;SDS011;11719;51.052;6.982;2023-04-03T15:18:42;0.60;;;0.30;;
16242;SDS011;11719;51.052;6.982;2023-04-03T15:21:08;0.67;;;0.30;;
16242;SDS011;11719;51.052;6.982;2023-04-03T15:23:34;0.20;;;0.20;;
16242;SDS011;11719;51.052;6.982;2023-04-03T15:26:00;0.10;;;0.00;;
16242;SDS011;11719;51.052;6.982;2023-04-03T15:28:31;0.60;;;0.20;;
16242;SDS011;11719;51.052;6.982;2023-04-03T15:31:00;0.30;;;0.20;;
16242;SDS011;11719;51.052;6.982;2023-04-03T15:33:28;1.07;;;0.40;;
16242;SDS011;11719;51.052;6.982;2023-04-03T15:35:54;0.10;;;0.10;;
16242;SDS011;11719;51.052;6.982;2023-04-03T15:38:20;0.40;;;0.17;;
16242;SDS011;11719;51.052;6.982;2023-04-03T15:40:46;0.53;;;0.10;;
16242;SDS011;11719;51.052;6.982;2023-04-03T15:43:12;0.43;;;0.20;;
16242;SDS011;11719;51.052;6.982;2023-04-03T15:45:40;0.50;;;0.20;;
16242;SDS011;11719;51.052;6.982;2023-04-03T15:48:07;1.77;;;0.27;;
16242;SDS011;11719;51.052;6.982;2023-04-03T15:50:33;0.97;;;0.40;;
16242;SDS011;11719;51.052;6.982;2023-04-03T15:53:00;0.20;;;0.20;;
16242;SDS011;11719;51.052;6.982;2023-04-03T15:55:30;0.40;;;0.40;;
16242;SDS011;11719;51.052;6.982;2023-04-03T15:57:58;0.30;;;0.20;;
16242;SDS011;11719;51.052;6.982;2023-04-03T16:00:24;0.63;;;0.20;;
16242;SDS011;11719;51.052;6.982;2023-04-03T16:02:54;0.40;;;0.20;;
16242;SDS011;11719;51.052;6.982;2023-04-03T16:05:24;1.13;;;0.20;;
16242;SDS011;11719;51.052;6.982;2023-04-03T16:07:50;0.27;;;0.20;;
16242;SDS011;11719;51.052;6.982;2023-04-03T16:10:17;0.57;;;0.30;;
16242;SDS011;11719;51.052;6.982;2023-04-03T16:12:43;0.37;;;0.13;;
16242;SDS011;11719;51.052;6.982;2023-04-03T16:15:09;0.20;;;0.20;;
16242;SDS011;11719;51.052;6.982;2023-04-03T16:17:37;1.37;;;0.10;;
16242;SDS011;11719;51.052;6.982;2023-04-03T16:20:06;0.73;;;0.20;;
16242;SDS011;11719;51.052;6.982;2023-04-03T16:22:33;1.10;;;0.30;;
16242;SDS011;11719;51.052;6.982;2023-04-03T16:25:00;1.87;;;0.20;;
16242;SDS011;11719;51.052;6.982;2023-04-03T16:27:26;0.50;;;0.37;;
16242;SDS011;11719;51.052;6.982;2023-04-03T16:29:55;0.10;;;0.10;;
16242;SDS011;11719;51.052;6.982;2023-04-03T16:32:24;0.73;;;0.30;;
16242;SDS011;11719;51.052;6.982;2023-04-03T16:34:54;1.37;;;0.50;;
16242;SDS011;11719;51.052;6.982;2023-04-03T16:37:21;0.70;;;0.20;;
16242;SDS011;11719;51.052;6.982;2023-04-03T16:39:47;1.30;;;0.30;;
16242;SDS011;11719;51.052;6.982;2023-04-03T16:42:13;0.20;;;0.10;;
16242;SDS011;11719;51.052;6.982;2023-04-03T16:44:39;0.10;;;0.10;;
16242;SDS011;11719;51.052;6.982;2023-04-03T16:47:06;0.10;;;0.10;;
16242;SDS011;11719;51.052;6.982;2023-04-03T16:49:32;0.47;;;0.37;;
16242;SDS011;11719;51.052;6.982;2023-04-03T16:52:03;0.47;;;0.20;;
16242;SDS011;11719;51.052;6.982;2023-04-03T16:54:30;0.40;;;0.20;;
16242;SDS011;11719;51.052;6.982;2023-04-03T16:56:57;0.70;;;0.60;;
16242;SDS011;11719;51.052;6.982;2023-04-03T16:59:23;0.17;;;0.17;;
16242;SDS011;11719;51.052;6.982;2023-04-03T17:01:49;0.37;;;0.17;;
16242;SDS011;11719;51.052;6.982;2023-04-03T17:04:15;0.37;;;0.10;;
16242;SDS011;11719;51.052;6.982;2023-04-03T17:06:41;0.90;;;0.20;;
16242;SDS011;11719;51.052;6.982;2023-04-03T17:09:07;0.80;;;0.47;;
16242;SDS011;11719;51.052;6.982;2023-04-03T17:11:34;3.07;;;0.30;;
16242;SDS011;11719;51.052;6.982;2023-04-03T17:14:00;1.13;;;0.33;;
16242;SDS011;11719;51.052;6.982;2023-04-03T17:16:26;0.90;;;0.47;;
16242;SDS011;11719;51.052;6.982;2023-04-03T17:18:53;0.77;;;0.20;;
16242;SDS011;11719;51.052;6.982;2023-04-03T17:21:20;0.70;;;0.20;;